Time;durP1;ratioP1;P1;durP2;ratioP2;P2;SDS_P1;SDS_P2;PMS_P1;PMS_P2;Temp;Humidity;BMP_temperature;BMP_pressure;BME280_temperature;BME280_humidity;BME280_pressure;Samples;Min_cycle;Max_cycle;Signal;HPM_P1;HPM_P2
2022/10/08 00:01:02;;;;;;;;;;;15.70;99.90;;;;;;5074165;28;20390;-67
2022/10/08 00:03:29;;;;;;;;;;;15.60;99.90;;;;;;5063568;28;19949;-67
2022/10/08 00:06:04;;;;;;;;;;;15.60;99.90;;;;;;5074503;28;19910;-67
2022/10/08 00:08:31;;;;;;;;;;;15.60;99.90;;;;;;5074470;28;19905;-67
2022/10/08 00:11:00;;;;;;;;;;;15.70;99.90;;;;;;5074578;28;19914;-67
2022/10/08 00:13:27;;;;;;;;;;;15.60;99.90;;;;;;5074143;28;20358;-67
2022/10/08 00:15:54;;;;;;;;;;;15.70;99.90;;;;;;5073876;28;19908;-67
2022/10/08 00:18:20;;;;;;;;;;;15.70;99.90;;;;;;5074004;28;20049;-67
2022/10/08 00:20:47;;;;;;;;;;;15.60;99.90;;;;;;5074212;28;19921;-67
2022/10/08 00:23:12;;;;;;;;;;;15.60;99.90;;;;;;5074178;28;19935;-67
2022/10/08 00:25:39;;;;;;;;;;;15.60;99.90;;;;;;5074252;28;19932;-67
2022/10/08 00:28:04;;;;;;;;;;;15.50;99.90;;;;;;5073789;28;19904;-67
2022/10/08 00:30:30;;;;;;;;;;;15.50;99.90;;;;;;5073618;28;19995;-67
2022/10/08 00:32:55;;;;;;;;;;;15.40;99.90;;;;;;5074274;28;20402;-67
2022/10/08 00:35:21;;;;;;;;;;;15.40;99.90;;;;;;5073716;28;19904;-67
2022/10/08 00:37:46;;;;;;;;;;;15.40;99.90;;;;;;5073719;28;19905;-67
2022/10/08 00:40:13;;;;;;;;;;;15.30;99.90;;;;;;5074065;28;20409;-67
2022/10/08 00:42:39;;;;;;;;;;;15.30;99.90;;;;;;5073617;28;20017;-67
2022/10/08 00:45:06;;;;;;;;;;;15.30;99.90;;;;;;5073286;28;19908;-67
2022/10/08 00:47:32;;;;;;;;;;;15.40;99.90;;;;;;5073649;28;19915;-67
2022/10/08 00:50:14;;;;;;;;;;;15.30;99.90;;;;;;5073345;28;20374;-67
2022/10/08 00:52:42;;;;;;;;;;;15.30;99.90;;;;;;5073841;28;19904;-67
2022/10/08 00:55:08;;;;;;;;;;;15.30;99.90;;;;;;5073503;28;19905;-67
2022/10/08 00:57:35;;;;;;;;;;;15.30;99.90;;;;;;5073356;28;19908;-67
2022/10/08 01:00:03;;;;;;;;;;;15.30;99.90;;;;;;5073000;28;19908;-67
2022/10/08 01:02:28;;;;;;;;;;;15.20;99.90;;;;;;5073163;28;20408;-67
2022/10/08 01:04:54;;;;;;;;;;;15.10;99.90;;;;;;5073567;28;19904;-67
2022/10/08 01:07:26;;;;;;;;;;;15.10;99.90;;;;;;5073281;28;19904;-67
2022/10/08 01:09:52;;;;;;;;;;;15.10;99.90;;;;;;5073123;28;20404;-67
2022/10/08 01:12:24;;;;;;;;;;;15.00;99.90;;;;;;5072939;28;19999;-67
2022/10/08 01:15:13;;;;;;;;;;;15.00;99.90;;;;;;5072925;28;19984;-67
2022/10/08 01:17:41;;;;;;;;;;;14.90;99.90;;;;;;5073273;28;19988;-67
2022/10/08 01:20:14;;;;;;;;;;;14.90;99.90;;;;;;5073120;28;19908;-67
2022/10/08 01:22:49;;;;;;;;;;;14.90;99.90;;;;;;5073036;28;19911;-67
2022/10/08 01:25:33;;;;;;;;;;;14.90;99.90;;;;;;5072706;28;19912;-67
2022/10/08 01:28:07;;;;;;;;;;;15.10;99.90;;;;;;5072488;28;19908;-67
2022/10/08 01:30:34;;;;;;;;;;;15.00;99.90;;;;;;5072831;28;20289;-67
2022/10/08 01:33:02;;;;;;;;;;;15.00;99.90;;;;;;5073196;28;19908;-67
2022/10/08 01:35:30;;;;;;;;;;;15.10;99.90;;;;;;5072610;28;20397;-67
2022/10/08 01:37:58;;;;;;;;;;;15.00;99.90;;;;;;5072409;28;19908;-67
2022/10/08 01:40:29;;;;;;;;;;;15.10;99.90;;;;;;5072528;28;19995;-67
2022/10/08 01:42:56;;;;;;;;;;;15.10;99.90;;;;;;5072291;28;20392;-67
2022/10/08 01:45:25;;;;;;;;;;;15.10;99.90;;;;;;5072976;28;19909;-67
2022/10/08 01:47:53;;;;;;;;;;;15.10;99.90;;;;;;5072752;28;20340;-67
2022/10/08 01:50:27;;;;;;;;;;;15.10;99.90;;;;;;5072691;28;20366;-67
2022/10/08 01:52:57;;;;;;;;;;;15.20;99.90;;;;;;5072554;28;19911;-67
2022/10/08 01:55:37;;;;;;;;;;;15.20;99.90;;;;;;5072320;28;19904;-67
2022/10/08 01:58:06;;;;;;;;;;;15.10;99.90;;;;;;5072188;28;19912;-67
2022/10/08 02:00:33;;;;;;;;;;;15.10;99.90;;;;;;5072869;28;19991;-67
2022/10/08 02:02:59;;;;;;;;;;;15.10;99.90;;;;;;5072868;28;20325;-67
2022/10/08 02:05:26;;;;;;;;;;;15.10;99.90;;;;;;5072417;28;19905;-67
2022/10/08 02:07:53;;;;;;;;;;;15.10;99.90;;;;;;5072551;28;19965;-67
2022/10/08 02:10:21;;;;;;;;;;;15.00;99.90;;;;;;5072353;28;19908;-67
2022/10/08 02:12:47;;;;;;;;;;;15.00;99.90;;;;;;5071915;28;19904;-67
2022/10/08 02:15:14;;;;;;;;;;;15.00;99.90;;;;;;5072262;28;20220;-67
2022/10/08 02:17:49;;;;;;;;;;;14.90;99.90;;;;;;5072184;28;20015;-67
2022/10/08 02:20:18;;;;;;;;;;;14.80;99.90;;;;;;5072693;28;19915;-67
2022/10/08 02:22:50;;;;;;;;;;;14.80;99.90;;;;;;5072194;28;19946;-67
2022/10/08 02:25:21;;;;;;;;;;;14.70;99.90;;;;;;5071872;28;19904;-67
2022/10/08 02:27:50;;;;;;;;;;;14.70;99.90;;;;;;5072284;28;20386;-67
2022/10/08 02:30:16;;;;;;;;;;;14.80;99.90;;;;;;5072160;28;19912;-67
2022/10/08 02:32:47;;;;;;;;;;;14.80;99.90;;;;;;5072189;28;19904;-67
2022/10/08 02:35:24;;;;;;;;;;;14.80;99.90;;;;;;5072083;28;19908;-67
2022/10/08 02:38:01;;;;;;;;;;;14.80;99.90;;;;;;5071987;28;20286;-67
2022/10/08 02:40:29;;;;;;;;;;;14.70;99.90;;;;;;5072265;28;19912;-67
2022/10/08 02:42:57;;;;;;;;;;;14.60;99.90;;;;;;5072085;28;19904;-67
2022/10/08 02:45:28;;;;;;;;;;;14.50;99.90;;;;;;5071934;28;19904;-67
2022/10/08 02:47:57;;;;;;;;;;;14.50;99.90;;;;;;5071923;28;20401;-67
2022/10/08 02:50:24;;;;;;;;;;;14.40;99.90;;;;;;5072842;28;19905;-67
2022/10/08 02:52:50;;;;;;;;;;;14.40;99.90;;;;;;5076162;28;19904;-67
2022/10/08 02:55:18;;;;;;;;;;;14.30;99.90;;;;;;5075438;28;19911;-67
2022/10/08 02:57:47;;;;;;;;;;;14.30;99.90;;;;;;5075744;28;19957;-67
2022/10/08 03:00:13;;;;;;;;;;;14.30;99.90;;;;;;5075679;28;19909;-67
2022/10/08 03:02:45;;;;;;;;;;;14.30;99.90;;;;;;5075607;28;20375;-67
2022/10/08 03:05:16;;;;;;;;;;;14.30;99.90;;;;;;5075663;28;19908;-67
2022/10/08 03:07:42;;;;;;;;;;;14.30;99.90;;;;;;5075548;28;20401;-67
2022/10/08 03:10:08;;;;;;;;;;;14.30;99.90;;;;;;5075126;28;19904;-67
2022/10/08 03:12:34;;;;;;;;;;;14.40;99.90;;;;;;5075344;28;19954;-67
2022/10/08 03:15:00;;;;;;;;;;;14.40;99.90;;;;;;5075540;28;19908;-67
2022/10/08 03:17:35;;;;;;;;;;;14.30;99.90;;;;;;5074904;28;20390;-67
2022/10/08 03:20:04;;;;;;;;;;;14.30;99.90;;;;;;5075725;28;20111;-67
2022/10/08 03:22:30;;;;;;;;;;;14.20;99.90;;;;;;5075432;28;19940;-67
2022/10/08 03:24:56;;;;;;;;;;;14.10;99.90;;;;;;5074556;28;19962;-67
2022/10/08 03:27:21;;;;;;;;;;;14.00;99.90;;;;;;5075201;28;19950;-66
2022/10/08 03:29:47;;;;;;;;;;;14.00;99.90;;;;;;5073718;28;19911;-67
2022/10/08 03:32:12;;;;;;;;;;;14.10;99.90;;;;;;5074124;28;19923;-66
2022/10/08 03:34:38;;;;;;;;;;;14.00;99.90;;;;;;5073353;28;19904;-67
2022/10/08 03:37:04;;;;;;;;;;;14.00;99.90;;;;;;5074730;28;19912;-67
2022/10/08 03:39:29;;;;;;;;;;;14.00;99.90;;;;;;5074608;28;19912;-67
2022/10/08 03:41:55;;;;;;;;;;;14.00;99.90;;;;;;5075274;28;19904;-67
2022/10/08 03:44:20;;;;;;;;;;;14.00;99.90;;;;;;5074858;28;19916;-67
2022/10/08 03:46:46;;;;;;;;;;;14.00;99.90;;;;;;5074899;28;20313;-67
2022/10/08 03:49:11;;;;;;;;;;;14.10;99.90;;;;;;5074795;28;19905;-67
2022/10/08 03:51:37;;;;;;;;;;;14.00;99.90;;;;;;5074643;28;19908;-67
2022/10/08 03:54:02;;;;;;;;;;;14.00;99.90;;;;;;5073056;28;19987;-67
2022/10/08 03:56:28;;;;;;;;;;;14.10;99.90;;;;;;5074945;28;19912;-67
2022/10/08 03:58:55;;;;;;;;;;;14.10;99.90;;;;;;5074717;28;19958;-67
2022/10/08 04:01:21;;;;;;;;;;;14.10;99.90;;;;;;5074243;28;19908;-67
2022/10/08 04:03:47;;;;;;;;;;;14.20;99.90;;;;;;5074675;28;19947;-67
2022/10/08 04:06:13;;;;;;;;;;;14.10;99.90;;;;;;5074531;28;19947;-67
2022/10/08 04:08:38;;;;;;;;;;;14.20;99.90;;;;;;5074528;28;19911;-67
2022/10/08 04:11:04;;;;;;;;;;;14.20;99.90;;;;;;5074332;28;19957;-67
2022/10/08 04:13:30;;;;;;;;;;;14.20;99.90;;;;;;5074568;28;19999;-67
2022/10/08 04:16:03;;;;;;;;;;;14.20;99.90;;;;;;5074582;28;20006;-67
2022/10/08 04:18:28;;;;;;;;;;;14.20;99.90;;;;;;5074127;28;19985;-67
2022/10/08 04:20:58;;;;;;;;;;;14.20;99.90;;;;;;5074121;28;20387;-67
2022/10/08 04:23:24;;;;;;;;;;;14.10;99.90;;;;;;5073929;28;20293;-67
2022/10/08 04:25:50;;;;;;;;;;;14.20;99.90;;;;;;5074058;28;19904;-67
2022/10/08 04:28:16;;;;;;;;;;;14.20;99.90;;;;;;5074092;28;19958;-67
2022/10/08 04:30:41;;;;;;;;;;;14.20;99.90;;;;;;5074307;28;20328;-67
2022/10/08 04:33:07;;;;;;;;;;;14.20;99.90;;;;;;5074079;28;20415;-67
2022/10/08 04:35:36;;;;;;;;;;;14.20;99.90;;;;;;5073349;28;19919;-68
2022/10/08 04:38:01;;;;;;;;;;;14.20;99.90;;;;;;5073812;28;19919;-67
2022/10/08 04:40:27;;;;;;;;;;;14.20;99.90;;;;;;5073756;28;20321;-67
2022/10/08 04:42:52;;;;;;;;;;;14.30;99.90;;;;;;5074124;28;19904;-67
2022/10/08 04:45:18;;;;;;;;;;;14.30;99.90;;;;;;5073515;28;19908;-67
2022/10/08 04:47:43;;;;;;;;;;;14.30;99.90;;;;;;5073658;28;20054;-67
2022/10/08 04:50:09;;;;;;;;;;;14.30;99.90;;;;;;5073124;28;19904;-67
2022/10/08 04:52:34;;;;;;;;;;;14.20;99.90;;;;;;5073861;28;20321;-67
2022/10/08 04:55:00;;;;;;;;;;;14.20;99.90;;;;;;5073663;28;19908;-67
2022/10/08 04:57:25;;;;;;;;;;;14.20;99.90;;;;;;5073370;28;19912;-67
2022/10/08 04:59:51;;;;;;;;;;;14.20;99.90;;;;;;5073410;28;19904;-67
2022/10/08 05:02:16;;;;;;;;;;;14.20;99.90;;;;;;5073546;28;19950;-67
2022/10/08 05:04:42;;;;;;;;;;;14.20;99.90;;;;;;5071675;28;19912;-67
2022/10/08 05:07:07;;;;;;;;;;;14.20;99.90;;;;;;5073514;28;19939;-67
2022/10/08 05:09:33;;;;;;;;;;;14.20;99.90;;;;;;5073195;28;19905;-67
2022/10/08 05:11:59;;;;;;;;;;;14.20;99.90;;;;;;5073467;28;19905;-67
2022/10/08 05:14:24;;;;;;;;;;;14.30;99.90;;;;;;5072434;28;19904;-67
2022/10/08 05:16:50;;;;;;;;;;;14.20;99.90;;;;;;5072796;28;19924;-67
2022/10/08 05:19:15;;;;;;;;;;;14.30;99.90;;;;;;5072646;28;20298;-67
2022/10/08 05:21:41;;;;;;;;;;;14.30;99.90;;;;;;5073039;28;20280;-67
2022/10/08 05:24:07;;;;;;;;;;;14.20;99.90;;;;;;5072979;28;20325;-67
2022/10/08 05:26:34;;;;;;;;;;;14.20;99.90;;;;;;5072966;28;19943;-67
2022/10/08 05:29:00;;;;;;;;;;;14.30;99.90;;;;;;5073237;28;19912;-67
2022/10/08 05:31:26;;;;;;;;;;;14.20;99.90;;;;;;5072416;28;19904;-66
2022/10/08 05:33:52;;;;;;;;;;;14.20;99.90;;;;;;5070679;28;20019;-67
2022/10/08 05:36:19;;;;;;;;;;;14.30;99.90;;;;;;5071467;28;20003;-66
2022/10/08 05:38:44;;;;;;;;;;;14.20;99.90;;;;;;5071976;28;19981;-67
2022/10/08 05:41:12;;;;;;;;;;;14.20;99.90;;;;;;5072050;28;19978;-66
2022/10/08 05:43:38;;;;;;;;;;;14.20;99.90;;;;;;5072441;28;19908;-67
2022/10/08 05:46:04;;;;;;;;;;;14.30;99.90;;;;;;5072405;28;20394;-67
2022/10/08 05:48:29;;;;;;;;;;;14.30;99.90;;;;;;5072726;28;20282;-67
2022/10/08 05:50:55;;;;;;;;;;;14.20;99.90;;;;;;5072542;28;19991;-67
2022/10/08 05:53:21;;;;;;;;;;;14.30;99.90;;;;;;5072635;28;19950;-67
2022/10/08 05:55:46;;;;;;;;;;;14.30;99.90;;;;;;5072635;28;19920;-67
2022/10/08 05:58:12;;;;;;;;;;;14.30;99.90;;;;;;5072509;28;19912;-67
2022/10/08 06:00:37;;;;;;;;;;;14.40;99.90;;;;;;5072834;28;19950;-67
2022/10/08 06:03:03;;;;;;;;;;;14.40;99.90;;;;;;5072090;28;19911;-67
2022/10/08 06:05:28;;;;;;;;;;;14.40;99.90;;;;;;5072481;28;19912;-66
2022/10/08 06:07:56;;;;;;;;;;;14.40;99.90;;;;;;5072871;28;19904;-67
2022/10/08 06:10:23;;;;;;;;;;;14.40;99.90;;;;;;5072481;28;19999;-67
2022/10/08 06:12:48;;;;;;;;;;;14.40;99.90;;;;;;5072365;28;20323;-67
2022/10/08 06:15:14;;;;;;;;;;;14.30;99.90;;;;;;5072378;28;20042;-66
2022/10/08 06:17:39;;;;;;;;;;;14.40;99.90;;;;;;5071741;28;19923;-65
2022/10/08 06:20:05;;;;;;;;;;;14.40;99.90;;;;;;5071294;28;19908;-67
2022/10/08 06:22:31;;;;;;;;;;;14.40;99.90;;;;;;5071348;28;19912;-67
2022/10/08 06:24:56;;;;;;;;;;;14.40;99.90;;;;;;5073656;28;19904;-67
2022/10/08 06:27:22;;;;;;;;;;;14.40;99.90;;;;;;5076320;28;20003;-66
2022/10/08 06:29:47;;;;;;;;;;;14.50;99.90;;;;;;5076288;28;19905;-66
2022/10/08 06:32:13;;;;;;;;;;;14.50;99.90;;;;;;5076384;28;19909;-66
2022/10/08 06:34:40;;;;;;;;;;;14.50;99.90;;;;;;5076216;28;19944;-66
2022/10/08 06:37:06;;;;;;;;;;;14.50;99.90;;;;;;5076147;28;19912;-65
2022/10/08 06:39:32;;;;;;;;;;;14.50;99.90;;;;;;5075704;28;20378;-67
2022/10/08 06:41:57;;;;;;;;;;;14.50;99.90;;;;;;5075805;28;19943;-65
2022/10/08 06:44:23;;;;;;;;;;;14.40;99.90;;;;;;5075998;28;20372;-65
2022/10/08 06:46:48;;;;;;;;;;;14.50;99.90;;;;;;5075864;28;19904;-66
2022/10/08 06:49:14;;;;;;;;;;;14.50;99.90;;;;;;5076168;28;19911;-65
2022/10/08 06:51:40;;;;;;;;;;;14.60;99.90;;;;;;5076090;28;19911;-65
2022/10/08 06:54:05;;;;;;;;;;;14.70;99.90;;;;;;5075990;28;19992;-65
2022/10/08 06:56:31;;;;;;;;;;;14.80;99.90;;;;;;5075877;28;19963;-66
2022/10/08 06:58:57;;;;;;;;;;;14.80;99.90;;;;;;5076198;28;19909;-64
2022/10/08 07:01:23;;;;;;;;;;;14.90;99.90;;;;;;5076208;28;19904;-66
2022/10/08 07:03:50;;;;;;;;;;;14.90;99.90;;;;;;5075977;28;19905;-66
2022/10/08 07:06:16;;;;;;;;;;;14.90;99.90;;;;;;5075815;28;19904;-66
2022/10/08 07:08:42;;;;;;;;;;;15.10;99.90;;;;;;5075731;28;19908;-67
2022/10/08 07:11:07;;;;;;;;;;;15.10;99.90;;;;;;5075613;28;20058;-66
2022/10/08 07:13:33;;;;;;;;;;;15.20;99.90;;;;;;5075827;28;19906;-66
2022/10/08 07:16:12;;;;;;;;;;;15.30;99.90;;;;;;5075093;28;19935;-66
2022/10/08 07:18:39;;;;;;;;;;;15.40;99.90;;;;;;5075359;28;20382;-65
2022/10/08 07:21:04;;;;;;;;;;;15.50;99.90;;;;;;5075419;28;19905;-65
2022/10/08 07:23:30;;;;;;;;;;;15.70;99.90;;;;;;5075317;28;19912;-66
2022/10/08 07:25:58;;;;;;;;;;;15.80;99.90;;;;;;5075160;28;19904;-66
2022/10/08 07:28:24;;;;;;;;;;;15.90;99.90;;;;;;5075198;28;19912;-66
2022/10/08 07:30:50;;;;;;;;;;;16.00;99.90;;;;;;5075004;28;19904;-66
2022/10/08 07:33:15;;;;;;;;;;;16.00;99.90;;;;;;5075205;28;20331;-66
2022/10/08 07:35:41;;;;;;;;;;;16.10;99.90;;;;;;5074444;28;19916;-66
2022/10/08 07:38:06;;;;;;;;;;;15.90;99.90;;;;;;5075325;28;19911;-66
2022/10/08 07:40:34;;;;;;;;;;;16.00;99.90;;;;;;5075036;28;20363;-65
2022/10/08 07:42:59;;;;;;;;;;;16.10;99.90;;;;;;5075231;28;20362;-66
2022/10/08 07:45:25;;;;;;;;;;;16.10;99.90;;;;;;5075307;28;19961;-66
2022/10/08 07:47:50;;;;;;;;;;;16.00;99.90;;;;;;5075287;28;19946;-66
2022/10/08 07:50:16;;;;;;;;;;;16.10;99.90;;;;;;5074758;28;20374;-65
2022/10/08 07:52:41;;;;;;;;;;;16.30;99.90;;;;;;5075167;28;20362;-66
2022/10/08 07:55:07;;;;;;;;;;;17.20;99.90;;;;;;5074858;28;20350;-66
2022/10/08 07:57:32;;;;;;;;;;;17.10;99.90;;;;;;5074467;28;20382;-66
2022/10/08 07:59:58;;;;;;;;;;;17.10;99.90;;;;;;5074281;28;20235;-66
2022/10/08 08:02:23;;;;;;;;;;;16.80;99.90;;;;;;5074676;28;19911;-66
2022/10/08 08:04:49;;;;;;;;;;;17.00;99.90;;;;;;5074856;28;19911;-66
2022/10/08 08:07:14;;;;;;;;;;;17.10;99.90;;;;;;5074550;28;20007;-66
2022/10/08 08:09:40;;;;;;;;;;;17.30;99.90;;;;;;5074822;28;19912;-66
2022/10/08 08:12:05;;;;;;;;;;;17.40;99.90;;;;;;5074278;28;19904;-66
2022/10/08 08:14:32;;;;;;;;;;;17.40;99.90;;;;;;5073962;28;19914;-66
2022/10/08 08:16:58;;;;;;;;;;;17.70;99.90;;;;;;5074364;28;19924;-66
2022/10/08 08:19:23;;;;;;;;;;;17.80;99.90;;;;;;5074241;28;19904;-66
2022/10/08 08:21:49;;;;;;;;;;;17.90;99.90;;;;;;5074931;28;19957;-66
2022/10/08 08:24:15;;;;;;;;;;;18.00;99.90;;;;;;5074223;28;19904;-66
2022/10/08 08:26:41;;;;;;;;;;;17.90;99.90;;;;;;5074327;28;19915;-66
2022/10/08 08:29:09;;;;;;;;;;;18.00;99.90;;;;;;5073812;28;19904;-65
2022/10/08 08:31:36;;;;;;;;;;;18.20;99.90;;;;;;5074250;28;19947;-66
2022/10/08 08:34:03;;;;;;;;;;;18.40;99.90;;;;;;5074233;28;20007;-66
2022/10/08 08:36:30;;;;;;;;;;;18.80;99.90;;;;;;5073897;28;19912;-66
2022/10/08 08:38:56;;;;;;;;;;;19.00;99.90;;;;;;5073749;28;19912;-66
2022/10/08 08:41:36;;;;;;;;;;;18.90;99.90;;;;;;5073881;28;19904;-65
2022/10/08 08:44:07;;;;;;;;;;;19.00;99.90;;;;;;5073409;28;19904;-66
2022/10/08 08:46:35;;;;;;;;;;;19.40;99.90;;;;;;5073878;28;19908;-66
2022/10/08 08:49:04;;;;;;;;;;;19.20;99.90;;;;;;5072823;28;19931;-66
2022/10/08 08:51:30;;;;;;;;;;;19.40;99.90;;;;;;5073428;28;20010;-65
2022/10/08 08:53:56;;;;;;;;;;;19.20;99.90;;;;;;5072610;28;19981;-66
2022/10/08 08:56:23;;;;;;;;;;;19.10;99.90;;;;;;5073586;28;19912;-66
2022/10/08 08:58:52;;;;;;;;;;;19.00;99.90;;;;;;5073693;28;19905;-66
2022/10/08 09:01:29;;;;;;;;;;;19.00;99.90;;;;;;5073627;28;19904;-66
2022/10/08 09:03:57;;;;;;;;;;;19.00;99.90;;;;;;5073366;28;19926;-66
2022/10/08 09:06:26;;;;;;;;;;;18.80;99.90;;;;;;5073391;28;20428;-65
2022/10/08 09:08:57;;;;;;;;;;;18.60;99.90;;;;;;5073087;28;19912;-66
2022/10/08 09:11:23;;;;;;;;;;;18.80;99.90;;;;;;5072578;28;20354;-65
2022/10/08 09:13:59;;;;;;;;;;;18.90;99.90;;;;;;5073225;28;19904;-65
2022/10/08 09:16:27;;;;;;;;;;;19.00;99.90;;;;;;5072839;28;19920;-65
2022/10/08 09:18:53;;;;;;;;;;;19.00;99.90;;;;;;5073145;28;19916;-65
2022/10/08 09:21:19;;;;;;;;;;;19.10;99.90;;;;;;5073025;28;19905;-65
2022/10/08 09:23:45;;;;;;;;;;;19.10;99.90;;;;;;5072991;28;19927;-65
2022/10/08 09:26:19;;;;;;;;;;;19.10;99.90;;;;;;5072561;28;20014;-66
2022/10/08 09:28:46;;;;;;;;;;;19.00;99.90;;;;;;5072802;28;19908;-65
2022/10/08 09:31:20;;;;;;;;;;;18.70;99.90;;;;;;5073184;28;19922;-65
2022/10/08 09:33:53;;;;;;;;;;;18.80;99.90;;;;;;5073385;28;19938;-65
2022/10/08 09:36:28;;;;;;;;;;;18.80;99.90;;;;;;5073064;28;19908;-66
2022/10/08 09:38:58;;;;;;;;;;;18.70;99.90;;;;;;5073378;28;19904;-65
2022/10/08 09:41:27;;;;;;;;;;;18.90;99.90;;;;;;5072607;28;19904;-65
2022/10/08 09:44:22;;;;;;;;;;;18.80;99.90;;;;;;5073181;28;19904;-66
2022/10/08 09:46:48;;;;;;;;;;;19.00;99.90;;;;;;5059743;28;20350;-66
2022/10/08 09:49:27;;;;;;;;;;;19.00;99.90;;;;;;5072800;28;19955;-65
2022/10/08 09:51:54;;;;;;;;;;;19.00;99.90;;;;;;5072667;28;19904;-66
2022/10/08 09:54:31;;;;;;;;;;;19.00;99.90;;;;;;5072912;28;19904;-65
2022/10/08 09:56:57;;;;;;;;;;;18.80;99.90;;;;;;5072733;28;19917;-66
2022/10/08 09:59:24;;;;;;;;;;;18.80;99.90;;;;;;5072143;28;19910;-66
2022/10/08 10:01:51;;;;;;;;;;;19.00;99.90;;;;;;5072858;28;19904;-65
2022/10/08 10:04:33;;;;;;;;;;;19.10;99.90;;;;;;5073008;28;20275;-65
2022/10/08 10:06:59;;;;;;;;;;;19.30;99.90;;;;;;5072343;28;19908;-65
2022/10/08 10:09:39;;;;;;;;;;;19.40;99.90;;;;;;5072489;28;20312;-65
2022/10/08 10:12:10;;;;;;;;;;;19.60;99.90;;;;;;5072909;28;20281;-65
2022/10/08 10:14:41;;;;;;;;;;;19.50;99.90;;;;;;5072536;28;19991;-64
2022/10/08 10:17:14;;;;;;;;;;;19.50;99.90;;;;;;5072200;28;19970;-64
2022/10/08 10:20:01;;;;;;;;;;;19.70;99.90;;;;;;5072812;28;19930;-64
2022/10/08 10:22:31;;;;;;;;;;;19.80;99.90;;;;;;5072402;28;19904;-64
2022/10/08 10:24:59;;;;;;;;;;;19.90;99.90;;;;;;5072026;28;19904;-65
2022/10/08 10:27:47;;;;;;;;;;;20.00;99.90;;;;;;5072142;28;19958;-64
2022/10/08 10:30:14;;;;;;;;;;;20.00;99.90;;;;;;5073033;28;20378;-64
2022/10/08 10:32:45;;;;;;;;;;;20.00;99.90;;;;;;5072188;28;19974;-65
2022/10/08 10:35:13;;;;;;;;;;;20.20;99.90;;;;;;5072885;28;19915;-65
2022/10/08 10:37:43;;;;;;;;;;;20.40;99.90;;;;;;5071997;28;20421;-64
2022/10/08 10:40:29;;;;;;;;;;;20.60;99.90;;;;;;5071785;28;20382;-64
2022/10/08 10:43:07;;;;;;;;;;;20.40;99.90;;;;;;5072143;28;19915;-65
2022/10/08 10:45:35;;;;;;;;;;;20.60;99.90;;;;;;5072030;28;19909;-64
2022/10/08 10:48:01;;;;;;;;;;;20.90;99.90;;;;;;5072004;28;19930;-65
2022/10/08 10:50:39;;;;;;;;;;;21.10;99.90;;;;;;5071985;28;19904;-65
2022/10/08 10:53:18;;;;;;;;;;;22.10;99.90;;;;;;5071763;28;19905;-64
2022/10/08 10:55:51;;;;;;;;;;;22.40;99.90;;;;;;5072328;28;19951;-64
2022/10/08 10:58:25;;;;;;;;;;;23.50;99.90;;;;;;5071899;28;19999;-65
2022/10/08 11:00:56;;;;;;;;;;;23.60;99.90;;;;;;5071984;28;19908;-64
2022/10/08 11:03:27;;;;;;;;;;;22.50;99.90;;;;;;5071905;28;19915;-64
2022/10/08 11:05:56;;;;;;;;;;;22.10;99.90;;;;;;5072421;28;19927;-63
2022/10/08 11:08:31;;;;;;;;;;;22.20;99.90;;;;;;5070129;28;19958;-65
2022/10/08 11:11:03;;;;;;;;;;;22.00;99.90;;;;;;5072373;28;19911;-65
2022/10/08 11:13:38;;;;;;;;;;;22.40;99.90;;;;;;5074172;28;19905;-65
2022/10/08 11:16:26;;;;;;;;;;;22.40;99.90;;;;;;5075229;28;19919;-64
2022/10/08 11:18:56;;;;;;;;;;;22.10;99.90;;;;;;5075309;28;19965;-65
2022/10/08 11:21:25;;;;;;;;;;;22.10;99.90;;;;;;5075767;28;19904;-64
2022/10/08 11:24:09;;;;;;;;;;;22.70;99.90;;;;;;5074958;28;19904;-65
2022/10/08 11:26:48;;;;;;;;;;;22.60;99.90;;;;;;5075559;28;20381;-66
2022/10/08 11:29:14;;;;;;;;;;;22.40;99.90;;;;;;5075636;28;20426;-66
2022/10/08 11:31:47;;;;;;;;;;;22.80;99.90;;;;;;5075320;28;20008;-66
2022/10/08 11:34:20;;;;;;;;;;;22.70;99.90;;;;;;5074972;28;19914;-66
2022/10/08 11:36:50;;;;;;;;;;;22.80;99.90;;;;;;5075070;28;20400;-66
2022/10/08 11:39:15;;;;;;;;;;;23.00;99.90;;;;;;5075132;28;19905;-65
2022/10/08 11:41:55;;;;;;;;;;;22.70;99.90;;;;;;5075202;28;19911;-65
2022/10/08 11:44:21;;;;;;;;;;;22.80;99.90;;;;;;5074841;28;19912;-66
2022/10/08 11:46:46;;;;;;;;;;;23.10;99.90;;;;;;5075222;28;19915;-65
2022/10/08 11:49:15;;;;;;;;;;;22.90;99.90;;;;;;5074933;28;19912;-66
2022/10/08 11:51:40;;;;;;;;;;;22.90;99.90;;;;;;5074469;28;19936;-64
2022/10/08 11:54:08;;;;;;;;;;;23.30;99.90;;;;;;5074640;28;19955;-65
2022/10/08 11:56:39;;;;;;;;;;;24.10;99.90;;;;;;5074986;28;20362;-65
2022/10/08 11:59:23;;;;;;;;;;;23.60;99.90;;;;;;5074836;28;19948;-65
2022/10/08 12:01:52;;;;;;;;;;;23.40;99.90;;;;;;5075235;28;19908;-65
2022/10/08 12:04:19;;;;;;;;;;;23.40;99.90;;;;;;5074863;28;19904;-66
2022/10/08 12:06:46;;;;;;;;;;;23.40;99.90;;;;;;5074140;28;19959;-66
2022/10/08 12:09:21;;;;;;;;;;;23.60;99.90;;;;;;5074494;28;20021;-66
2022/10/08 12:11:48;;;;;;;;;;;24.20;99.90;;;;;;5074396;28;19904;-66
2022/10/08 12:14:14;;;;;;;;;;;24.50;99.90;;;;;;5074379;28;20270;-71
2022/10/08 12:16:45;;;;;;;;;;;24.40;99.90;;;;;;5073901;28;19916;-65
2022/10/08 12:19:30;;;;;;;;;;;25.10;99.90;;;;;;5074392;28;19947;-65
2022/10/08 12:21:55;;;;;;;;;;;24.20;99.90;;;;;;5073693;28;19927;-66
2022/10/08 12:24:36;;;;;;;;;;;24.60;99.90;;;;;;5074636;28;20311;-66
2022/10/08 12:27:16;;;;;;;;;;;24.00;99.90;;;;;;5074080;28;19993;-66
2022/10/08 12:29:51;;;;;;;;;;;24.20;99.90;;;;;;5074057;28;19904;-65
2022/10/08 12:32:16;;;;;;;;;;;24.70;99.90;;;;;;5074053;28;19946;-66
2022/10/08 12:34:42;;;;;;;;;;;24.90;99.90;;;;;;5073277;28;20320;-65
2022/10/08 12:37:12;;;;;;;;;;;24.70;99.90;;;;;;5074483;28;19958;-65
2022/10/08 12:39:41;;;;;;;;;;;25.10;99.90;;;;;;5073856;28;19915;-66
2022/10/08 12:42:07;;;;;;;;;;;25.30;99.90;;;;;;5073904;28;19958;-65
2022/10/08 12:44:50;;;;;;;;;;;25.10;99.90;;;;;;5073700;28;20324;-65
2022/10/08 12:47:19;;;;;;;;;;;24.80;99.90;;;;;;5073561;28;20002;-65
2022/10/08 12:49:52;;;;;;;;;;;24.80;99.90;;;;;;5073348;28;20361;-66
2022/10/08 12:52:18;;;;;;;;;;;25.10;99.90;;;;;;5073687;28;20058;-65
2022/10/08 12:54:46;;;;;;;;;;;24.20;99.90;;;;;;5073558;28;19998;-65
2022/10/08 12:57:12;;;;;;;;;;;23.70;99.90;;;;;;5073408;28;19933;-66
2022/10/08 12:59:39;;;;;;;;;;;23.90;99.90;;;;;;5073805;28;20298;-65
2022/10/08 13:02:23;;;;;;;;;;;23.90;99.90;;;;;;5073426;28;19987;-65
2022/10/08 13:04:49;;;;;;;;;;;24.50;99.90;;;;;;5073093;28;19943;-65
2022/10/08 13:07:34;;;;;;;;;;;24.50;99.90;;;;;;5073424;28;19958;-65
2022/10/08 13:10:00;;;;;;;;;;;23.60;99.90;;;;;;5073151;28;19987;-66
2022/10/08 13:12:26;;;;;;;;;;;24.10;99.90;;;;;;5073210;28;19908;-65
2022/10/08 13:15:04;;;;;;;;;;;24.40;99.90;;;;;;5073657;28;20255;-65
2022/10/08 13:17:31;;;;;;;;;;;23.90;99.90;;;;;;5072895;28;20392;-65
2022/10/08 13:20:05;;;;;;;;;;;24.30;99.90;;;;;;5073055;28;19912;-65
2022/10/08 13:22:30;;;;;;;;;;;24.30;99.90;;;;;;5073217;28;20351;-65
2022/10/08 13:24:56;;;;;;;;;;;24.30;99.90;;;;;;5073444;28;19957;-65
2022/10/08 13:27:22;;;;;;;;;;;24.60;99.90;;;;;;5072963;28;20441;-65
2022/10/08 13:29:48;;;;;;;;;;;24.30;99.90;;;;;;5072850;28;19974;-65
2022/10/08 13:32:13;;;;;;;;;;;23.80;99.90;;;;;;5072623;28;20378;-66
2022/10/08 13:34:39;;;;;;;;;;;23.70;99.90;;;;;;5072521;28;20285;-65
2022/10/08 13:37:06;;;;;;;;;;;23.30;99.90;;;;;;5072788;28;19913;-65
2022/10/08 13:39:35;;;;;;;;;;;23.80;99.90;;;;;;5072784;28;20010;-65
2022/10/08 13:42:03;;;;;;;;;;;23.50;99.90;;;;;;5072717;28;20337;-66
2022/10/08 13:44:28;;;;;;;;;;;23.60;99.90;;;;;;5072956;28;19911;-65
2022/10/08 13:46:54;;;;;;;;;;;23.70;99.90;;;;;;5072441;28;19904;-65
2022/10/08 13:49:27;;;;;;;;;;;23.60;99.90;;;;;;5072868;28;19904;-65
2022/10/08 13:51:52;;;;;;;;;;;24.50;99.90;;;;;;5073103;28;20051;-65
2022/10/08 13:54:22;;;;;;;;;;;24.20;99.90;;;;;;5072790;28;19958;-65
2022/10/08 13:56:48;;;;;;;;;;;23.90;99.90;;;;;;5072587;28;20005;-65
2022/10/08 13:59:14;;;;;;;;;;;24.00;99.90;;;;;;5072581;28;19950;-66
2022/10/08 14:01:39;;;;;;;;;;;24.30;99.90;;;;;;5073667;28;19908;-65
2022/10/08 14:04:05;;;;;;;;;;;24.70;99.90;;;;;;5072875;28;20003;-65
2022/10/08 14:06:30;;;;;;;;;;;24.10;99.90;;;;;;5072534;28;19908;-66
2022/10/08 14:08:57;;;;;;;;;;;23.70;99.90;;;;;;5072423;28;19935;-66
2022/10/08 14:11:23;;;;;;;;;;;23.60;99.90;;;;;;5072320;28;19911;-66
2022/10/08 14:13:48;;;;;;;;;;;23.50;99.90;;;;;;5072731;28;19904;-65
2022/10/08 14:16:14;;;;;;;;;;;23.90;99.90;;;;;;5071802;28;19966;-66
2022/10/08 14:18:39;;;;;;;;;;;23.90;99.90;;;;;;5072236;28;20271;-66
2022/10/08 14:21:05;;;;;;;;;;;23.80;99.90;;;;;;5072480;28;19958;-66
2022/10/08 14:23:33;;;;;;;;;;;23.80;99.90;;;;;;5072282;28;19912;-65